Time;durP1;ratioP1;P1;durP2;ratioP2;P2;SDS_P1;SDS_P2;PMS_P1;PMS_P2;Temp;Humidity;BMP_temperature;BMP_pressure;BME280_temperature;BME280_humidity;BME280_pressure;Samples;Min_cycle;Max_cycle;Signal;HPM_P1;HPM_P2
2022/07/26 00:01:41;;;;;;;;;;;18.80;99.90;;;;;;5094271;28;19908;-71
2022/07/26 00:04:07;;;;;;;;;;;18.70;99.90;;;;;;5094428;28;19913;-70
2022/07/26 00:06:32;;;;;;;;;;;18.70;99.90;;;;;;5094311;28;20331;-70
2022/07/26 00:08:58;;;;;;;;;;;18.70;99.90;;;;;;5094190;28;19919;-70
2022/07/26 00:11:24;;;;;;;;;;;18.70;99.90;;;;;;5094461;28;19909;-70
2022/07/26 00:13:50;;;;;;;;;;;18.60;99.90;;;;;;5094621;28;20011;-70
2022/07/26 00:16:15;;;;;;;;;;;18.70;99.90;;;;;;5092833;28;20007;-71
2022/07/26 00:18:41;;;;;;;;;;;18.50;99.90;;;;;;5094495;28;19912;-70
2022/07/26 00:21:06;;;;;;;;;;;18.50;99.90;;;;;;5094315;28;20010;-71
2022/07/26 00:23:32;;;;;;;;;;;18.50;99.90;;;;;;5094356;28;20322;-70
2022/07/26 00:25:57;;;;;;;;;;;18.50;99.90;;;;;;5093822;28;19959;-71
2022/07/26 00:28:23;;;;;;;;;;;18.50;99.90;;;;;;5094213;28;20486;-71
2022/07/26 00:30:48;;;;;;;;;;;18.50;99.90;;;;;;5093810;28;19912;-70
2022/07/26 00:33:14;;;;;;;;;;;18.40;99.90;;;;;;5093601;28;19912;-71
2022/07/26 00:35:39;;;;;;;;;;;18.40;99.90;;;;;;5093625;28;19999;-71
2022/07/26 00:38:05;;;;;;;;;;;18.40;99.90;;;;;;5093576;28;19920;-70
2022/07/26 00:40:30;;;;;;;;;;;18.50;99.90;;;;;;5093751;28;20376;-71
2022/07/26 00:42:56;;;;;;;;;;;18.40;99.90;;;;;;5093774;28;19928;-71
2022/07/26 00:45:21;;;;;;;;;;;18.40;99.90;;;;;;5093442;28;19916;-71
2022/07/26 00:47:47;;;;;;;;;;;18.40;99.90;;;;;;5091952;28;19935;-71
2022/07/26 00:50:14;;;;;;;;;;;18.30;99.90;;;;;;5093471;28;19923;-71
2022/07/26 00:52:40;;;;;;;;;;;18.30;99.90;;;;;;5091877;28;19934;-71
2022/07/26 00:55:06;;;;;;;;;;;18.30;99.90;;;;;;5093219;28;19916;-71
2022/07/26 00:57:34;;;;;;;;;;;18.30;99.90;;;;;;5093394;28;19908;-71
2022/07/26 01:00:00;;;;;;;;;;;18.30;99.90;;;;;;5093193;28;20009;-71
2022/07/26 01:02:26;;;;;;;;;;;18.30;99.90;;;;;;5093194;28;20036;-71
2022/07/26 01:04:51;;;;;;;;;;;18.30;99.90;;;;;;5092835;28;20376;-71
2022/07/26 01:07:17;;;;;;;;;;;18.30;99.90;;;;;;5091597;28;19912;-71
2022/07/26 01:09:43;;;;;;;;;;;18.30;99.90;;;;;;5091654;28;20007;-71
2022/07/26 01:12:09;;;;;;;;;;;18.20;99.90;;;;;;5093135;28;20015;-71
2022/07/26 01:14:35;;;;;;;;;;;18.20;99.90;;;;;;5093276;28;19920;-71
2022/07/26 01:17:00;;;;;;;;;;;18.20;99.90;;;;;;5092803;28;19915;-71
2022/07/26 01:19:25;;;;;;;;;;;18.20;99.90;;;;;;5092876;28;20157;-71
2022/07/26 01:21:51;;;;;;;;;;;18.10;99.90;;;;;;5091214;28;20352;-71
2022/07/26 01:24:17;;;;;;;;;;;18.10;99.90;;;;;;5092739;28;20007;-71
2022/07/26 01:26:43;;;;;;;;;;;18.10;99.90;;;;;;5092864;28;19931;-71
2022/07/26 01:29:09;;;;;;;;;;;18.10;99.90;;;;;;5092731;28;19916;-71
2022/07/26 01:31:34;;;;;;;;;;;18.10;99.90;;;;;;5092630;28;19915;-71
2022/07/26 01:34:00;;;;;;;;;;;18.20;99.90;;;;;;5092483;28;19920;-72
2022/07/26 01:36:25;;;;;;;;;;;18.10;99.90;;;;;;5091236;28;20402;-71
2022/07/26 01:38:51;;;;;;;;;;;18.10;99.90;;;;;;5090929;28;19963;-71
2022/07/26 01:41:16;;;;;;;;;;;18.10;99.90;;;;;;5092554;28;19920;-71
2022/07/26 01:43:42;;;;;;;;;;;18.00;99.90;;;;;;5092806;28;19931;-71
2022/07/26 01:46:08;;;;;;;;;;;18.00;99.90;;;;;;5092829;28;19912;-71
2022/07/26 01:48:33;;;;;;;;;;;18.00;99.90;;;;;;5092685;28;19937;-71
2022/07/26 01:50:59;;;;;;;;;;;18.00;99.90;;;;;;5092483;28;20247;-71
2022/07/26 01:53:25;;;;;;;;;;;17.90;99.90;;;;;;5091135;28;20380;-71
2022/07/26 01:55:50;;;;;;;;;;;18.00;99.90;;;;;;5092583;28;19916;-71
2022/07/26 01:58:16;;;;;;;;;;;17.90;99.90;;;;;;5092487;28;19935;-71
2022/07/26 02:00:41;;;;;;;;;;;17.90;99.90;;;;;;5092148;28;19930;-71
2022/07/26 02:03:07;;;;;;;;;;;17.80;99.90;;;;;;5092415;28;20417;-71
2022/07/26 02:05:32;;;;;;;;;;;17.90;99.90;;;;;;5092143;28;20387;-71
2022/07/26 02:07:58;;;;;;;;;;;17.80;99.90;;;;;;5092297;28;19942;-71
2022/07/26 02:10:23;;;;;;;;;;;17.80;99.90;;;;;;5090651;28;20007;-71
2022/07/26 02:12:49;;;;;;;;;;;17.80;99.90;;;;;;5091732;28;19942;-71
2022/07/26 02:15:15;;;;;;;;;;;17.80;99.90;;;;;;5091916;28;19930;-71
2022/07/26 02:17:41;;;;;;;;;;;17.80;99.90;;;;;;5091262;28;19919;-71
2022/07/26 02:20:07;;;;;;;;;;;17.70;99.90;;;;;;5092145;28;19942;-71
2022/07/26 02:22:33;;;;;;;;;;;17.80;99.90;;;;;;5091890;28;19969;-72
2022/07/26 02:24:58;;;;;;;;;;;17.70;99.90;;;;;;5091860;28;20367;-72
2022/07/26 02:27:24;;;;;;;;;;;17.70;99.90;;;;;;5090252;28;20328;-71
2022/07/26 02:29:49;;;;;;;;;;;17.80;99.90;;;;;;5090339;28;19937;-70
2022/07/26 02:32:15;;;;;;;;;;;17.70;99.90;;;;;;5091615;28;19963;-70
2022/07/26 02:34:40;;;;;;;;;;;17.60;99.90;;;;;;5091500;28;19912;-70
2022/07/26 02:37:06;;;;;;;;;;;17.70;99.90;;;;;;5090011;28;19916;-72
2022/07/26 02:39:31;;;;;;;;;;;17.70;99.90;;;;;;5091089;28;20006;-72
2022/07/26 02:41:58;;;;;;;;;;;17.70;99.90;;;;;;5091242;28;19920;-71
2022/07/26 02:44:24;;;;;;;;;;;17.70;99.90;;;;;;5089883;28;19920;-72
2022/07/26 02:46:50;;;;;;;;;;;17.70;99.90;;;;;;5091555;28;19922;-72
2022/07/26 02:49:15;;;;;;;;;;;17.70;99.90;;;;;;5091085;28;20376;-72
2022/07/26 02:51:41;;;;;;;;;;;17.70;99.90;;;;;;5091384;28;20024;-72
2022/07/26 02:54:07;;;;;;;;;;;17.70;99.90;;;;;;5090848;28;20303;-71
2022/07/26 02:56:32;;;;;;;;;;;17.70;99.90;;;;;;5091111;28;20295;-71
2022/07/26 02:58:58;;;;;;;;;;;17.70;99.90;;;;;;5090923;28;19917;-71
2022/07/26 03:01:23;;;;;;;;;;;17.70;99.90;;;;;;5090994;28;19916;-72
2022/07/26 03:03:49;;;;;;;;;;;17.70;99.90;;;;;;5091066;28;20010;-71
2022/07/26 03:06:14;;;;;;;;;;;17.60;99.90;;;;;;5090907;28;19927;-72
2022/07/26 03:08:40;;;;;;;;;;;17.60;99.90;;;;;;5091202;28;20188;-71
2022/07/26 03:11:06;;;;;;;;;;;17.60;99.90;;;;;;5091081;28;19959;-70
2022/07/26 03:13:31;;;;;;;;;;;17.60;99.90;;;;;;5090730;28;19912;-71
2022/07/26 03:15:57;;;;;;;;;;;17.70;99.90;;;;;;5090758;28;20005;-71
2022/07/26 03:18:22;;;;;;;;;;;17.70;99.90;;;;;;5089501;28;20313;-71
2022/07/26 03:20:48;;;;;;;;;;;17.70;99.90;;;;;;5090760;28;20360;-71
2022/07/26 03:23:14;;;;;;;;;;;17.70;99.90;;;;;;5090779;28;19912;-71
2022/07/26 03:25:39;;;;;;;;;;;17.70;99.90;;;;;;5090481;28;20011;-71
2022/07/26 03:28:05;;;;;;;;;;;17.70;99.90;;;;;;5089535;28;19989;-71
2022/07/26 03:30:30;;;;;;;;;;;17.80;99.90;;;;;;5090648;28;19951;-71
2022/07/26 03:32:56;;;;;;;;;;;17.80;99.90;;;;;;5089169;28;19927;-71
2022/07/26 03:35:21;;;;;;;;;;;17.80;99.90;;;;;;5090977;28;20002;-69
2022/07/26 03:37:47;;;;;;;;;;;17.80;99.90;;;;;;5089167;28;20392;-72
2022/07/26 03:40:16;;;;;;;;;;;17.80;99.90;;;;;;5090209;28;19913;-70
2022/07/26 03:42:41;;;;;;;;;;;17.90;99.90;;;;;;5090738;28;19963;-70
2022/07/26 03:45:07;;;;;;;;;;;17.90;99.90;;;;;;5090370;28;20387;-71
2022/07/26 03:47:32;;;;;;;;;;;17.90;99.90;;;;;;5089157;28;20253;-71
2022/07/26 03:49:58;;;;;;;;;;;17.90;99.90;;;;;;5090363;28;20321;-71
2022/07/26 03:52:23;;;;;;;;;;;18.00;99.90;;;;;;5090695;28;19921;-71
2022/07/26 03:54:49;;;;;;;;;;;17.90;99.90;;;;;;5090223;28;20367;-71
2022/07/26 03:57:14;;;;;;;;;;;18.00;99.90;;;;;;5090518;28;19920;-71
2022/07/26 03:59:40;;;;;;;;;;;18.00;99.90;;;;;;5090794;28;19912;-70
2022/07/26 04:02:05;;;;;;;;;;;18.10;99.90;;;;;;5090552;28;19920;-71
2022/07/26 04:04:31;;;;;;;;;;;18.00;99.90;;;;;;5090584;28;19912;-71
2022/07/26 04:06:56;;;;;;;;;;;18.10;99.90;;;;;;5090429;28;20033;-71
2022/07/26 04:09:22;;;;;;;;;;;18.10;99.90;;;;;;5090300;28;19912;-71
2022/07/26 04:11:48;;;;;;;;;;;18.10;99.90;;;;;;5090588;28;19925;-71
2022/07/26 04:14:13;;;;;;;;;;;18.10;99.90;;;;;;5090219;28;19919;-71
2022/07/26 04:16:39;;;;;;;;;;;18.20;99.90;;;;;;5090257;28;19916;-71
2022/07/26 04:19:04;;;;;;;;;;;18.20;99.90;;;;;;5090334;28;19965;-71
2022/07/26 04:21:30;;;;;;;;;;;18.30;99.90;;;;;;5090422;28;19908;-71
2022/07/26 04:23:55;;;;;;;;;;;18.30;99.90;;;;;;5090309;28;20264;-71
2022/07/26 04:26:21;;;;;;;;;;;18.30;99.90;;;;;;5088817;28;19970;-70
2022/07/26 04:28:47;;;;;;;;;;;18.40;99.90;;;;;;5090594;28;19996;-71
2022/07/26 04:31:12;;;;;;;;;;;18.30;99.90;;;;;;5090062;28;20395;-70
2022/07/26 04:33:38;;;;;;;;;;;18.30;99.90;;;;;;5090428;28;19916;-71
2022/07/26 04:36:03;;;;;;;;;;;18.40;99.90;;;;;;5089923;28;19986;-72
2022/07/26 04:38:29;;;;;;;;;;;18.40;99.90;;;;;;5090006;28;19972;-70
2022/07/26 04:40:55;;;;;;;;;;;18.40;99.90;;;;;;5092356;28;19912;-71
2022/07/26 04:43:20;;;;;;;;;;;18.50;99.90;;;;;;5092369;28;19919;-71
2022/07/26 04:45:46;;;;;;;;;;;18.60;99.90;;;;;;5093546;28;19913;-71
2022/07/26 04:48:12;;;;;;;;;;;18.60;99.90;;;;;;5093920;28;19964;-71
2022/07/26 04:50:38;;;;;;;;;;;18.60;99.90;;;;;;5093690;28;20352;-71
2022/07/26 04:53:04;;;;;;;;;;;18.80;99.90;;;;;;5092063;28;20055;-71
2022/07/26 04:55:29;;;;;;;;;;;18.70;99.90;;;;;;5093582;28;19916;-71
2022/07/26 04:57:55;;;;;;;;;;;18.80;99.90;;;;;;5093516;28;19912;-71
2022/07/26 05:00:23;;;;;;;;;;;18.80;99.90;;;;;;5093179;28;19981;-71
2022/07/26 05:02:55;;;;;;;;;;;18.90;99.90;;;;;;5093324;28;19916;-71
2022/07/26 05:05:21;;;;;;;;;;;18.90;99.90;;;;;;5093243;28;20379;-71
2022/07/26 05:07:48;;;;;;;;;;;19.00;99.90;;;;;;5093340;28;19912;-71
2022/07/26 05:10:15;;;;;;;;;;;19.00;99.90;;;;;;5092997;28;20311;-71
2022/07/26 05:12:40;;;;;;;;;;;19.00;99.90;;;;;;5093322;28;19916;-71
2022/07/26 05:15:06;;;;;;;;;;;19.00;99.90;;;;;;5092802;28;19963;-71
2022/07/26 05:17:31;;;;;;;;;;;19.00;99.90;;;;;;5093026;28;20349;-71
2022/07/26 05:19:57;;;;;;;;;;;19.10;99.90;;;;;;5093039;28;20018;-71
2022/07/26 05:22:22;;;;;;;;;;;19.20;99.90;;;;;;5092839;28;20256;-71
2022/07/26 05:24:48;;;;;;;;;;;18.50;99.90;;;;;;5092521;28;19955;-71
2022/07/26 05:27:13;;;;;;;;;;;19.30;99.90;;;;;;5093051;28;19956;-71
2022/07/26 05:29:39;;;;;;;;;;;19.40;99.90;;;;;;5092535;28;20386;-71
2022/07/26 05:32:04;;;;;;;;;;;19.40;99.90;;;;;;5092579;28;19924;-70
2022/07/26 05:34:30;;;;;;;;;;;19.60;99.90;;;;;;5092435;28;20275;-71
2022/07/26 05:36:56;;;;;;;;;;;19.70;99.90;;;;;;5092447;28;20318;-71
2022/07/26 05:39:21;;;;;;;;;;;19.70;99.90;;;;;;5092388;28;20574;-71
2022/07/26 05:41:47;;;;;;;;;;;19.70;99.90;;;;;;5092515;28;20590;-71
2022/07/26 05:44:12;;;;;;;;;;;19.90;99.90;;;;;;5092544;28;19923;-71
2022/07/26 05:46:38;;;;;;;;;;;19.90;99.90;;;;;;5092744;28;19908;-71
2022/07/26 05:49:03;;;;;;;;;;;19.80;99.90;;;;;;5092336;28;19963;-72
2022/07/26 05:51:29;;;;;;;;;;;19.80;99.90;;;;;;5090945;28;20381;-72
2022/07/26 05:53:55;;;;;;;;;;;19.70;99.90;;;;;;5092152;28;19916;-70
2022/07/26 05:56:20;;;;;;;;;;;19.70;99.90;;;;;;5091909;28;19909;-71
2022/07/26 05:58:46;;;;;;;;;;;19.80;99.90;;;;;;5090809;28;19919;-70
2022/07/26 06:01:12;;;;;;;;;;;19.80;99.90;;;;;;5092006;28;19962;-71
2022/07/26 06:03:37;;;;;;;;;;;19.80;99.90;;;;;;5092415;28;20395;-71
2022/07/26 06:06:03;;;;;;;;;;;19.90;99.90;;;;;;5092269;28;19912;-71
2022/07/26 06:08:28;;;;;;;;;;;20.00;99.90;;;;;;5092353;28;20324;-71
2022/07/26 06:10:54;;;;;;;;;;;20.10;99.90;;;;;;5092119;28;20279;-71
2022/07/26 06:13:19;;;;;;;;;;;20.20;99.90;;;;;;5092320;28;19948;-70
2022/07/26 06:15:46;;;;;;;;;;;20.30;99.90;;;;;;5091858;28;20371;-71
2022/07/26 06:18:11;;;;;;;;;;;20.40;99.90;;;;;;5092060;28;19912;-71
2022/07/26 06:20:38;;;;;;;;;;;20.50;99.90;;;;;;5090112;28;19917;-71
2022/07/26 06:23:03;;;;;;;;;;;20.40;99.90;;;;;;5090442;28;20405;-70
2022/07/26 06:25:29;;;;;;;;;;;20.50;99.90;;;;;;5090133;28;20009;-71
2022/07/26 06:27:54;;;;;;;;;;;20.50;99.90;;;;;;5091845;28;20010;-71
2022/07/26 06:30:20;;;;;;;;;;;20.50;99.90;;;;;;5090123;28;19923;-71
2022/07/26 06:32:46;;;;;;;;;;;20.50;99.90;;;;;;5091817;28;19923;-72
2022/07/26 06:35:12;;;;;;;;;;;20.60;99.90;;;;;;5090351;28;20387;-71
2022/07/26 06:37:38;;;;;;;;;;;20.70;99.90;;;;;;5091338;28;20286;-71
2022/07/26 06:40:04;;;;;;;;;;;20.80;99.90;;;;;;5091584;28;19916;-72
2022/07/26 06:42:30;;;;;;;;;;;20.90;99.90;;;;;;5091146;28;19916;-71
2022/07/26 06:44:55;;;;;;;;;;;20.90;99.90;;;;;;5091271;28;19912;-72
2022/07/26 06:47:21;;;;;;;;;;;20.90;99.90;;;;;;5091329;28;19957;-72
2022/07/26 06:49:46;;;;;;;;;;;21.00;99.90;;;;;;5091048;28;19916;-71
2022/07/26 06:52:12;;;;;;;;;;;21.10;99.90;;;;;;5090912;28;19919;-71
2022/07/26 06:54:37;;;;;;;;;;;21.20;99.90;;;;;;5091050;28;19916;-71
2022/07/26 06:57:03;;;;;;;;;;;21.30;99.90;;;;;;5090910;28;19923;-71
2022/07/26 06:59:28;;;;;;;;;;;21.30;99.90;;;;;;5089801;28;19912;-71
2022/07/26 07:01:54;;;;;;;;;;;21.40;99.90;;;;;;5090748;28;19912;-71
2022/07/26 07:04:19;;;;;;;;;;;21.40;99.90;;;;;;5090426;28;19986;-71
2022/07/26 07:06:45;;;;;;;;;;;21.40;99.90;;;;;;5090824;28;19908;-71
2022/07/26 07:09:11;;;;;;;;;;;21.40;99.90;;;;;;5089368;28;19912;-70
2022/07/26 07:11:36;;;;;;;;;;;21.50;99.90;;;;;;5090704;28;19923;-71
2022/07/26 07:14:02;;;;;;;;;;;21.60;99.90;;;;;;5090806;28;19916;-71
2022/07/26 07:16:27;;;;;;;;;;;21.60;99.90;;;;;;5090691;28;19920;-71
2022/07/26 07:18:53;;;;;;;;;;;21.70;99.90;;;;;;5090829;28;19947;-72
2022/07/26 07:21:18;;;;;;;;;;;21.90;99.90;;;;;;5090860;28;19912;-71
2022/07/26 07:23:44;;;;;;;;;;;21.90;99.90;;;;;;5090979;28;19971;-71
2022/07/26 07:26:09;;;;;;;;;;;22.00;99.90;;;;;;5090855;28;20077;-67
2022/07/26 07:28:37;;;;;;;;;;;22.10;99.90;;;;;;5088076;28;19927;-68
2022/07/26 07:31:03;;;;;;;;;;;22.10;99.90;;;;;;5077278;28;19931;-63
2022/07/26 07:33:28;;;;;;;;;;;22.20;99.90;;;;;;5090447;28;19909;-65
2022/07/26 07:35:54;;;;;;;;;;;22.30;99.90;;;;;;5079102;28;19923;-65
2022/07/26 07:38:19;;;;;;;;;;;22.30;99.90;;;;;;5070414;28;20010;-66
2022/07/26 07:40:45;;;;;;;;;;;22.40;99.90;;;;;;5070280;28;19939;-66
2022/07/26 07:43:10;;;;;;;;;;;22.40;99.90;;;;;;5069924;28;19924;-66
2022/07/26 07:45:36;;;;;;;;;;;22.50;99.90;;;;;;5069874;28;20065;-65
2022/07/26 07:48:02;;;;;;;;;;;22.50;99.90;;;;;;5069778;28;19919;-65
2022/07/26 07:50:27;;;;;;;;;;;22.40;99.90;;;;;;5070077;28;19923;-65
2022/07/26 07:52:53;;;;;;;;;;;22.40;99.90;;;;;;5096883;28;19961;-66
2022/07/26 07:55:18;;;;;;;;;;;22.50;99.90;;;;;;5086467;28;19920;-65
2022/07/26 07:57:44;;;;;;;;;;;22.70;99.90;;;;;;5079693;28;19926;-65
2022/07/26 08:00:11;;;;;;;;;;;22.80;99.90;;;;;;5110687;28;19912;-67
2022/07/26 08:02:37;;;;;;;;;;;22.90;99.90;;;;;;5090591;28;19916;-65
2022/07/26 08:05:03;;;;;;;;;;;23.00;99.90;;;;;;5076961;28;19920;-66
2022/07/26 08:07:29;;;;;;;;;;;23.10;99.90;;;;;;5074056;28;19912;-64
2022/07/26 08:09:56;;;;;;;;;;;23.20;99.90;;;;;;5072208;28;19955;-65
2022/07/26 08:12:21;;;;;;;;;;;23.30;99.90;;;;;;5087936;28;19971;-66
2022/07/26 08:14:47;;;;;;;;;;;23.30;99.90;;;;;;5095965;28;20450;-66
2022/07/26 08:17:12;;;;;;;;;;;23.60;99.90;;;;;;5073793;28;19985;-66
2022/07/26 08:19:38;;;;;;;;;;;23.70;99.90;;;;;;5071741;28;19920;-66
2022/07/26 08:22:03;;;;;;;;;;;23.80;99.90;;;;;;5086120;28;19974;-65
2022/07/26 08:24:29;;;;;;;;;;;23.80;99.90;;;;;;5078288;28;20103;-66
2022/07/26 08:26:54;;;;;;;;;;;23.90;99.90;;;;;;5073623;28;19920;-65
2022/07/26 08:29:20;;;;;;;;;;;24.00;99.90;;;;;;5073684;28;19916;-65
2022/07/26 08:31:45;;;;;;;;;;;24.30;99.90;;;;;;5071681;28;20225;-66
2022/07/26 08:34:11;;;;;;;;;;;24.40;99.90;;;;;;5072024;28;19924;-66
2022/07/26 08:36:36;;;;;;;;;;;24.60;99.90;;;;;;5081411;28;19915;-66
2022/07/26 08:39:02;;;;;;;;;;;24.60;99.90;;;;;;5092616;28;19934;-66
2022/07/26 08:41:27;;;;;;;;;;;24.70;99.90;;;;;;5084826;28;19923;-65
2022/07/26 08:43:53;;;;;;;;;;;24.70;99.90;;;;;;5091364;28;20466;-66
2022/07/26 08:46:22;;;;;;;;;;;24.80;99.90;;;;;;5091485;28;20362;-64
2022/07/26 08:48:47;;;;;;;;;;;24.90;99.90;;;;;;5091896;28;19916;-65
2022/07/26 08:51:14;;;;;;;;;;;25.00;99.90;;;;;;5081874;28;19969;-66
2022/07/26 08:53:40;;;;;;;;;;;25.20;99.90;;;;;;5093066;28;19927;-65
2022/07/26 08:56:05;;;;;;;;;;;25.20;99.90;;;;;;5092603;28;20360;-65
2022/07/26 08:58:35;;;;;;;;;;;25.40;99.90;;;;;;5091402;28;19920;-65
2022/07/26 09:01:07;;;;;;;;;;;25.60;99.90;;;;;;5092680;28;20418;-67
2022/07/26 09:03:36;;;;;;;;;;;25.50;99.90;;;;;;5092071;28;19916;-66
2022/07/26 09:06:13;;;;;;;;;;;25.60;99.90;;;;;;5081992;28;19921;-65
2022/07/26 09:08:39;;;;;;;;;;;25.70;99.90;;;;;;5082968;28;20357;-65
2022/07/26 09:11:22;;;;;;;;;;;25.90;99.90;;;;;;5078963;28;20019;-65
2022/07/26 09:13:56;;;;;;;;;;;26.00;99.90;;;;;;5092053;28;19916;-64
2022/07/26 09:16:21;;;;;;;;;;;26.10;99.90;;;;;;5092650;28;19912;-65
2022/07/26 09:18:47;;;;;;;;;;;26.20;99.90;;;;;;5092408;28;19923;-65
2022/07/26 09:21:48;;;;;;;;;;;26.40;99.90;;;;;;5074801;28;19977;-65
2022/07/26 09:24:33;;;;;;;;;;;26.50;99.90;;;;;;5063194;28;19924;-66
2022/07/26 09:27:00;;;;;;;;;;;26.50;99.90;;;;;;5092111;28;20007;-65
2022/07/26 09:29:27;;;;;;;;;;;26.60;99.50;;;;;;5085072;28;20011;-66
2022/07/26 09:32:07;;;;;;;;;;;26.60;99.10;;;;;;5077736;28;19965;-66
2022/07/26 09:34:32;;;;;;;;;;;26.60;99.10;;;;;;5079419;28;19961;-66
2022/07/26 09:36:58;;;;;;;;;;;26.80;98.90;;;;;;5073501;28;20360;-66
2022/07/26 09:39:23;;;;;;;;;;;26.90;98.20;;;;;;5087168;28;19925;-66
2022/07/26 09:41:49;;;;;;;;;;;26.80;98.20;;;;;;5092153;28;19961;-66
2022/07/26 09:44:22;;;;;;;;;;;26.70;98.20;;;;;;5091694;28;19973;-66
2022/07/26 09:46:57;;;;;;;;;;;26.70;98.50;;;;;;5089069;28;19920;-66
2022/07/26 09:49:24;;;;;;;;;;;26.60;98.30;;;;;;5079164;28;19916;-65
2022/07/26 09:51:50;;;;;;;;;;;26.60;97.80;;;;;;5090988;28;19916;-66
2022/07/26 09:54:17;;;;;;;;;;;26.60;97.80;;;;;;5087129;28;20279;-66
2022/07/26 09:56:44;;;;;;;;;;;26.70;98.00;;;;;;5072443;28;19924;-66
2022/07/26 09:59:11;;;;;;;;;;;26.80;98.00;;;;;;5080364;28;20276;-66
2022/07/26 10:01:36;;;;;;;;;;;26.90;98.10;;;;;;5091334;28;19908;-66
2022/07/26 10:04:02;;;;;;;;;;;27.10;97.70;;;;;;5089363;28;19920;-66
2022/07/26 10:06:27;;;;;;;;;;;27.00;97.60;;;;;;5090461;28;19939;-66
2022/07/26 10:08:54;;;;;;;;;;;26.90;97.40;;;;;;5092599;28;20010;-66
2022/07/26 10:11:20;;;;;;;;;;;26.90;97.50;;;;;;5086827;28;20601;-66
2022/07/26 10:13:45;;;;;;;;;;;27.00;97.90;;;;;;5071625;28;20023;-66
2022/07/26 10:16:31;;;;;;;;;;;27.20;97.70;;;;;;5086693;28;20380;-66
2022/07/26 10:18:57;;;;;;;;;;;27.40;96.80;;;;;;5087827;28;19959;-66
2022/07/26 10:21:24;;;;;;;;;;;27.60;96.80;;;;;;5089726;28;19974;-66
2022/07/26 10:23:49;;;;;;;;;;;27.90;96.60;;;;;;5084166;28;19966;-66
2022/07/26 10:26:47;;;;;;;;;;;28.00;95.50;;;;;;5079962;28;19916;-65
2022/07/26 10:29:18;;;;;;;;;;;28.10;95.00;;;;;;5050176;28;19923;-65
2022/07/26 10:31:47;;;;;;;;;;;28.50;94.60;;;;;;5070378;28;19961;-67
2022/07/26 10:34:46;;;;;;;;;;;28.70;93.40;;;;;;5071369;28;19920;-66
2022/07/26 10:37:19;;;;;;;;;;;29.10;93.40;;;;;;5046944;28;19916;-66
2022/07/26 10:39:45;;;;;;;;;;;29.30;92.80;;;;;;5069827;28;19924;-65
2022/07/26 10:42:10;;;;;;;;;;;29.20;92.80;;;;;;5081847;28;20331;-66
2022/07/26 10:44:40;;;;;;;;;;;29.20;92.70;;;;;;5076496;28;20338;-67
2022/07/26 10:47:06;;;;;;;;;;;29.30;93.10;;;;;;5071267;28;19912;-67
2022/07/26 10:49:34;;;;;;;;;;;29.60;92.80;;;;;;5081290;28;19928;-67
2022/07/26 10:52:04;;;;;;;;;;;29.90;91.90;;;;;;5091629;28;19961;-67
2022/07/26 10:54:30;;;;;;;;;;;30.00;91.40;;;;;;5088963;28;20331;-69
2022/07/26 10:56:56;;;;;;;;;;;30.00;91.20;;;;;;5090500;28;20003;-66
2022/07/26 10:59:31;;;;;;;;;;;30.10;90.80;;;;;;5090788;28;19916;-66
2022/07/26 11:01:57;;;;;;;;;;;30.30;90.30;;;;;;5090684;28;19912;-66
2022/07/26 11:04:23;;;;;;;;;;;30.50;90.30;;;;;;5086378;28;19931;-64
2022/07/26 11:06:49;;;;;;;;;;;30.60;89.80;;;;;;5091803;28;19912;-67
2022/07/26 11:09:16;;;;;;;;;;;30.70;89.20;;;;;;5077971;28;19924;-65
2022/07/26 11:11:41;;;;;;;;;;;30.80;86.10;;;;;;5087475;28;19912;-66
2022/07/26 11:14:08;;;;;;;;;;;30.70;84.50;;;;;;5088745;28;20441;-66
2022/07/26 11:16:41;;;;;;;;;;;30.70;83.50;;;;;;5090090;28;19916;-67
2022/07/26 11:19:20;;;;;;;;;;;30.60;84.10;;;;;;5080939;28;19939;-65
2022/07/26 11:21:51;;;;;;;;;;;30.70;85.20;;;;;;5087715;28;20298;-66
2022/07/26 11:24:17;;;;;;;;;;;30.70;84.60;;;;;;5086542;28;20014;-66
2022/07/26 11:26:43;;;;;;;;;;;30.90;84.60;;;;;;5080413;28;20006;-67
2022/07/26 11:29:09;;;;;;;;;;;31.00;84.80;;;;;;5075086;28;20566;-67
2022/07/26 11:31:44;;;;;;;;;;;31.00;82.70;;;;;;5071546;28;19923;-66
2022/07/26 11:34:17;;;;;;;;;;;30.80;82.00;;;;;;5085264;28;19916;-67
2022/07/26 11:36:44;;;;;;;;;;;30.80;82.20;;;;;;5077034;28;20539;-67
2022/07/26 11:39:13;;;;;;;;;;;30.90;79.60;;;;;;5069837;28;19970;-67
2022/07/26 11:41:40;;;;;;;;;;;30.90;80.00;;;;;;5068407;28;19909;-67
2022/07/26 11:44:06;;;;;;;;;;;30.70;78.30;;;;;;5074744;28;19990;-66
2022/07/26 11:46:33;;;;;;;;;;;30.60;77.50;;;;;;5074812;28;20326;-65
2022/07/26 11:48:58;;;;;;;;;;;30.50;77.20;;;;;;5086464;28;20367;-66
2022/07/26 11:51:24;;;;;;;;;;;30.60;77.50;;;;;;5087947;28;19918;-66
2022/07/26 11:53:58;;;;;;;;;;;30.70;76.50;;;;;;5089153;28;19923;-66
2022/07/26 11:56:24;;;;;;;;;;;30.80;75.20;;;;;;5077464;28;20353;-65
2022/07/26 11:58:50;;;;;;;;;;;30.90;72.90;;;;;;5075917;28;19920;-63
2022/07/26 12:01:19;;;;;;;;;;;30.80;74.10;;;;;;5097492;28;19927;-66
2022/07/26 12:03:46;;;;;;;;;;;30.70;75.50;;;;;;5099946;28;20356;-67
2022/07/26 12:06:13;;;;;;;;;;;30.70;76.20;;;;;;5077099;28;19961;-65
2022/07/26 12:08:41;;;;;;;;;;;30.60;74.60;;;;;;5092823;28;19916;-65
2022/07/26 12:11:07;;;;;;;;;;;30.60;73.80;;;;;;5077854;28;20275;-66
2022/07/26 12:13:46;;;;;;;;;;;30.40;74.30;;;;;;5088808;28;19912;-66
2022/07/26 12:16:12;;;;;;;;;;;30.30;74.30;;;;;;5090576;28;20352;-66
2022/07/26 12:18:38;;;;;;;;;;;30.10;74.50;;;;;;5089938;28;20003;-66
2022/07/26 12:21:03;;;;;;;;;;;29.90;74.40;;;;;;5082485;28;20085;-66
2022/07/26 12:23:46;;;;;;;;;;;29.80;75.50;;;;;;5073697;28;20463;-66
2022/07/26 12:26:18;;;;;;;;;;;29.70;76.60;;;;;;5085295;28;20486;-67
2022/07/26 12:28:43;;;;;;;;;;;29.70;76.30;;;;;;5086943;28;20245;-66
2022/07/26 12:31:20;;;;;;;;;;;29.60;78.00;;;;;;5092888;28;19923;-66
2022/07/26 12:33:46;;;;;;;;;;;29.40;78.40;;;;;;5091985;28;20348;-66
2022/07/26 12:36:16;;;;;;;;;;;29.30;78.20;;;;;;5093535;28;19977;-64
2022/07/26 12:38:42;;;;;;;;;;;29.10;78.70;;;;;;5089909;28;19974;-64
2022/07/26 12:41:09;;;;;;;;;;;28.70;78.10;;;;;;5092504;28;19942;-66
2022/07/26 12:43:41;;;;;;;;;;;28.60;79.20;;;;;;5088741;28;19916;-65
2022/07/26 12:46:06;;;;;;;;;;;28.60;79.40;;;;;;5072390;28;19913;-68
2022/07/26 12:48:32;;;;;;;;;;;28.60;79.50;;;;;;5072804;28;20236;-66
2022/07/26 12:50:57;;;;;;;;;;;28.60;78.80;;;;;;5078394;28;19920;-65
2022/07/26 12:53:22;;;;;;;;;;;28.50;77.50;;;;;;5082165;28;19912;-64
2022/07/26 12:55:48;;;;;;;;;;;28.50;79.50;;;;;;5086363;28;19920;-66
2022/07/26 12:58:13;;;;;;;;;;;28.50;78.00;;;;;;5077593;28;19919;-63
2022/07/26 13:00:39;;;;;;;;;;;28.50;76.20;;;;;;5088537;28;19917;-64
2022/07/26 13:03:04;;;;;;;;;;;28.50;75.60;;;;;;5072530;28;19947;-66
2022/07/26 13:05:30;;;;;;;;;;;28.40;76.30;;;;;;5072167;28;20003;-66
2022/07/26 13:07:56;;;;;;;;;;;28.30;76.50;;;;;;5073114;28;20018;-65
2022/07/26 13:10:21;;;;;;;;;;;28.20;76.30;;;;;;5085688;28;19916;-66
2022/07/26 13:12:47;;;;;;;;;;;28.10;76.50;;;;;;5083958;28;20015;-65
2022/07/26 13:15:13;;;;;;;;;;;28.00;76.60;;;;;;5079257;28;19926;-65
2022/07/26 13:17:38;;;;;;;;;;;28.00;77.40;;;;;;5084491;28;20275;-65
2022/07/26 13:20:04;;;;;;;;;;;28.10;77.40;;;;;;5071299;28;19928;-65
2022/07/26 13:22:29;;;;;;;;;;;28.20;77.30;;;;;;5090292;28;19920;-66
2022/07/26 13:24:55;;;;;;;;;;;28.00;77.50;;;;;;5080523;28;19926;-65
2022/07/26 13:27:20;;;;;;;;;;;28.10;78.00;;;;;;5092221;28;19916;-65
2022/07/26 13:29:46;;;;;;;;;;;28.00;77.30;;;;;;5091506;28;19943;-66
2022/07/26 13:32:11;;;;;;;;;;;27.80;76.20;;;;;;5091753;28;19965;-67
2022/07/26 13:34:37;;;;;;;;;;;27.50;76.90;;;;;;5092461;28;20366;-65
2022/07/26 13:37:02;;;;;;;;;;;27.40;78.70;;;;;;5091948;28;19958;-68
2022/07/26 13:39:28;;;;;;;;;;;27.30;78.00;;;;;;5091838;28;19928;-65
2022/07/26 13:41:54;;;;;;;;;;;27.20;77.10;;;;;;5091948;28;19955;-66
2022/07/26 13:44:21;;;;;;;;;;;27.20;77.70;;;;;;5090625;28;20416;-66
2022/07/26 13:46:47;;;;;;;;;;;27.20;77.60;;;;;;5092318;28;20049;-67
2022/07/26 13:49:12;;;;;;;;;;;27.20;77.90;;;;;;5092136;28;20015;-66
2022/07/26 13:51:56;;;;;;;;;;;27.10;77.80;;;;;;5091408;28;19912;-66
2022/07/26 13:54:24;;;;;;;;;;;27.10;78.40;;;;;;5092075;28;19920;-65
2022/07/26 13:56:50;;;;;;;;;;;27.10;78.30;;;;;;5091819;28;19922;-66
2022/07/26 13:59:16;;;;;;;;;;;27.00;78.10;;;;;;5092084;28;19920;-66
2022/07/26 14:01:42;;;;;;;;;;;27.00;78.90;;;;;;5092083;28;19908;-66
2022/07/26 14:04:08;;;;;;;;;;;26.90;79.20;;;;;;5091717;28;19927;-65
2022/07/26 14:06:33;;;;;;;;;;;26.90;79.50;;;;;;5091871;28;19912;-67
2022/07/26 14:08:59;;;;;;;;;;;27.00;80.00;;;;;;5091497;28;19923;-65
2022/07/26 14:11:25;;;;;;;;;;;27.00;80.30;;;;;;5091989;28;20284;-65
2022/07/26 14:13:50;;;;;;;;;;;26.90;80.30;;;;;;5091066;28;20264;-64